createdAt,value
2023-02-08T00:01:24.263Z,2.54
2023-02-08T00:03:21.413Z,2.54
2023-02-08T00:05:20.529Z,2.54
2023-02-08T00:07:21.113Z,2.54
2023-02-08T00:09:20.685Z,2.54
2023-02-08T00:11:21.519Z,2.54
2023-02-08T00:13:20.603Z,2.54
2023-02-08T00:15:20.312Z,2.54
2023-02-08T00:17:21.249Z,2.54
2023-02-08T00:19:20.903Z,2.54
2023-02-08T00:21:20.240Z,2.54
2023-02-08T00:23:21.070Z,2.54
2023-02-08T00:25:20.467Z,2.54
2023-02-08T00:27:20.772Z,2.54
2023-02-08T00:29:23.445Z,2.54
2023-02-08T00:31:21.505Z,2.54
2023-02-08T00:33:20.441Z,2.54
2023-02-08T00:35:20.743Z,2.54
2023-02-08T00:37:20.255Z,2.54
2023-02-08T00:39:20.979Z,2.54
2023-02-08T00:41:20.488Z,2.54
2023-02-08T00:43:20.770Z,2.54
2023-02-08T00:45:20.300Z,2.54
2023-02-08T00:47:21.376Z,2.54
2023-02-08T00:49:20.430Z,2.54
2023-02-08T00:51:20.861Z,2.54
2023-02-08T00:53:20.415Z,2.54
2023-02-08T00:55:21.047Z,2.54
2023-02-08T00:57:20.419Z,2.54
2023-02-08T00:59:20.644Z,0.65
2023-02-08T01:01:24.251Z,0.65
2023-02-08T01:03:20.783Z,1.03
2023-02-08T01:05:20.734Z,1.03
2023-02-08T01:07:20.454Z,1.03
2023-02-08T01:09:20.652Z,1.03
2023-02-08T01:11:20.307Z,1.03
2023-02-08T01:13:20.776Z,1.03
2023-02-08T01:15:20.389Z,1.03
2023-02-08T01:17:21.378Z,1.03
2023-02-08T01:19:20.683Z,1.03
2023-02-08T01:21:21.019Z,1.03
2023-02-08T01:23:20.770Z,1.03
2023-02-08T01:25:20.370Z,1.03
2023-02-08T01:27:20.875Z,1.03
2023-02-08T01:29:20.679Z,1.03
2023-02-08T01:31:21.539Z,1.03
2023-02-08T01:33:20.683Z,1.03
2023-02-08T01:35:20.150Z,1.03
2023-02-08T01:37:20.444Z,1.03
2023-02-08T01:39:21.058Z,1.03
2023-02-08T01:41:20.529Z,1.03
2023-02-08T01:43:21.850Z,1.03
2023-02-08T01:45:20.303Z,1.03
2023-02-08T01:47:21.001Z,1.03
2023-02-08T01:49:20.281Z,1.03
2023-02-08T01:51:20.933Z,1.03
2023-02-08T01:53:20.348Z,1.03
2023-02-08T01:55:20.934Z,1.03
2023-02-08T01:57:20.213Z,1.03
2023-02-08T01:59:20.795Z,1.03
2023-02-08T02:01:22.108Z,1.03
2023-02-08T02:03:20.662Z,1.03
2023-02-08T02:05:21.153Z,1.03
2023-02-08T02:07:20.366Z,1.03
2023-02-08T02:09:21.251Z,1.03
2023-02-08T02:11:20.537Z,1.03
2023-02-08T02:13:20.816Z,1.03
2023-02-08T02:15:20.414Z,0.84
2023-02-08T02:17:21.149Z,0.84
2023-02-08T02:19:20.344Z,0.84
2023-02-08T02:21:23.105Z,0.84
2023-02-08T02:23:20.694Z,0.84
2023-02-08T02:25:20.231Z,0.84
2023-02-08T02:27:20.545Z,0.84
2023-02-08T02:29:20.569Z,0.84
2023-02-08T02:31:21.178Z,0.84
2023-02-08T02:33:20.700Z,0.84
2023-02-08T02:35:21.123Z,0.84
2023-02-08T02:37:20.511Z,0.84
2023-02-08T02:39:21.039Z,0.84
2023-02-08T02:41:20.428Z,0.84
2023-02-08T02:43:20.916Z,0.84
2023-02-08T02:45:20.355Z,0.84
2023-02-08T02:47:21.169Z,0.84
2023-02-08T02:49:20.567Z,0.84
2023-02-08T02:51:21.254Z,0.84
2023-02-08T02:53:20.552Z,0.84
2023-02-08T02:55:21.053Z,0.84
2023-02-08T02:57:20.406Z,0.84
2023-02-08T02:59:21.494Z,0.84
2023-02-08T03:01:24.212Z,0.84
2023-02-08T03:03:20.211Z,0.84
2023-02-08T03:05:20.947Z,0.84
2023-02-08T03:07:20.410Z,0.84
2023-02-08T03:09:20.878Z,0.84
2023-02-08T03:11:20.551Z,0.84
2023-02-08T03:13:20.931Z,0.84
2023-02-08T03:15:20.368Z,0.84
2023-02-08T03:17:21.554Z,0.84
2023-02-08T03:19:20.561Z,0.84
2023-02-08T03:21:20.946Z,0.84
2023-02-08T03:23:20.405Z,0.84
2023-02-08T03:25:21.144Z,0.84
2023-02-08T03:27:20.513Z,0.84
2023-02-08T03:29:20.974Z,0.84
2023-02-08T03:31:21.367Z,0.84
2023-02-08T03:33:21.214Z,0.84
2023-02-08T03:35:20.535Z,0.84
2023-02-08T03:37:20.951Z,0.84
2023-02-08T03:39:20.593Z,0.84
2023-02-08T03:41:21.105Z,0.84
2023-02-08T03:43:20.445Z,0.84
2023-02-08T03:45:21.199Z,0.84
2023-02-08T03:47:20.772Z,0.84
2023-02-08T03:49:20.149Z,0.84
2023-02-08T03:51:20.562Z,0.84
2023-02-08T03:53:20.320Z,0.84
2023-02-08T03:55:20.887Z,0.84
2023-02-08T03:57:20.233Z,0.84
2023-02-08T03:59:20.590Z,0.84
2023-02-08T04:01:24.804Z,0.84
2023-02-08T04:03:20.568Z,0.84
2023-02-08T04:05:20.791Z,0.84
2023-02-08T04:07:20.171Z,0.84
2023-02-08T04:09:20.845Z,0.84
2023-02-08T04:11:20.508Z,0.84
2023-02-08T04:13:20.749Z,0.84
2023-02-08T04:15:20.336Z,0.84
2023-02-08T04:17:20.933Z,0.84
2023-02-08T04:19:20.337Z,0.84
2023-02-08T04:21:20.728Z,0.84
2023-02-08T04:23:20.303Z,0.84
2023-02-08T04:25:20.937Z,0.84
2023-02-08T04:27:20.356Z,0.84
2023-02-08T04:29:21.131Z,0.84
2023-02-08T04:31:21.133Z,0.84
2023-02-08T04:33:21.001Z,0.84
2023-02-08T04:35:20.507Z,0.84
2023-02-08T04:37:21.001Z,0.84
2023-02-08T04:39:20.548Z,0.84
2023-02-08T04:41:20.968Z,0.84
2023-02-08T04:43:22.360Z,0.84
2023-02-08T04:45:21.087Z,0.84
2023-02-08T04:47:20.829Z,0.84
2023-02-08T04:49:21.689Z,0.84
2023-02-08T04:51:20.717Z,0.84
2023-02-08T04:53:20.366Z,0.84
2023-02-08T04:55:21.277Z,0.84
2023-02-08T04:57:20.379Z,0.84
2023-02-08T04:59:21.045Z,0.84
2023-02-08T05:01:23.977Z,0.84
2023-02-08T05:03:20.816Z,0.84
2023-02-08T05:05:20.548Z,0.84
2023-02-08T05:07:22.331Z,0.84
2023-02-08T05:09:20.507Z,0.84
2023-02-08T05:11:20.995Z,0.84
2023-02-08T05:13:20.307Z,0.84
2023-02-08T05:15:21.016Z,0.84
2023-02-08T05:17:21.045Z,0.84
2023-02-08T05:19:21.097Z,0.84
2023-02-08T05:21:20.662Z,0.84
2023-02-08T05:23:20.228Z,0.84
2023-02-08T05:25:20.834Z,0.84
2023-02-08T05:27:20.289Z,0.84
2023-02-08T05:29:20.920Z,0.84
2023-02-08T05:31:20.890Z,0.84
2023-02-08T05:33:21.056Z,0.84
2023-02-08T05:35:20.392Z,0.84
2023-02-08T05:37:23.799Z,0.84
2023-02-08T05:39:20.247Z,0.84
2023-02-08T05:41:20.945Z,0.84
2023-02-08T05:43:20.402Z,0.84
2023-02-08T05:45:20.765Z,0.84
2023-02-08T05:47:23.568Z,0.84
2023-02-08T05:49:20.636Z,0.84
2023-02-08T05:51:20.462Z,0.84
2023-02-08T05:53:21.042Z,0.84
2023-02-08T05:55:20.509Z,0.84
2023-02-08T05:57:20.849Z,0.84
2023-02-08T05:59:20.574Z,0.84
2023-02-08T06:01:20.554Z,0.84
2023-02-08T06:03:21.214Z,0.84
2023-02-08T06:05:24.149Z,0.84
2023-02-08T06:07:20.793Z,0.84
2023-02-08T06:09:20.885Z,0.84
2023-02-08T06:11:20.648Z,0.84
2023-02-08T06:13:20.904Z,0.84
2023-02-08T06:15:20.449Z,0.84
2023-02-08T06:17:21.478Z,0.84
2023-02-08T06:19:20.549Z,0.84
2023-02-08T06:21:22.861Z,0.84
2023-02-08T06:23:20.702Z,0.84
2023-02-08T06:25:21.014Z,0.84
2023-02-08T06:27:20.334Z,0.84
2023-02-08T06:29:21.046Z,0.84
2023-02-08T06:31:20.599Z,0.84
2023-02-08T06:33:21.453Z,0.84
2023-02-08T06:35:20.529Z,0.84
2023-02-08T06:37:20.933Z,0.84
2023-02-08T06:39:20.442Z,0.84
2023-02-08T06:41:21.024Z,0.84
2023-02-08T06:43:20.396Z,0.84
2023-02-08T06:45:29.293Z,0.84
2023-02-08T06:47:20.594Z,0.84
2023-02-08T06:49:20.883Z,0.84
2023-02-08T06:51:20.618Z,0.84
2023-02-08T06:53:20.334Z,0.84
2023-02-08T06:55:20.761Z,0.84
2023-02-08T06:57:20.126Z,0.84
2023-02-08T06:59:20.672Z,0.84
2023-02-08T07:01:26.663Z,0.84
2023-02-08T07:03:20.791Z,0.84
2023-02-08T07:05:20.924Z,0.84
2023-02-08T07:07:24.451Z,0.84
2023-02-08T07:09:21.066Z,0.84
2023-02-08T07:11:20.532Z,0.84
2023-02-08T07:13:20.678Z,0.84
2023-02-08T07:15:20.522Z,0.84
2023-02-08T07:17:21.209Z,0.84
2023-02-08T07:19:20.277Z,0.84
2023-02-08T07:21:21.097Z,0.84
2023-02-08T07:23:20.552Z,0.84
2023-02-08T07:25:21.021Z,0.84
2023-02-08T07:27:20.439Z,0.84
2023-02-08T07:29:21.975Z,0.84
2023-02-08T07:31:21.158Z,0.84
2023-02-08T07:33:21.223Z,0.84
2023-02-08T07:35:20.385Z,0.84
2023-02-08T07:37:20.930Z,0.84
2023-02-08T07:39:20.470Z,0.84
2023-02-08T07:41:20.863Z,0.84
2023-02-08T07:43:20.530Z,0.84
2023-02-08T07:45:21.091Z,0.84
2023-02-08T07:47:20.656Z,0.84
2023-02-08T07:49:20.850Z,0.84
2023-02-08T07:51:20.582Z,0.84
2023-02-08T07:53:21.109Z,0.84
2023-02-08T07:55:20.402Z,0.84
2023-02-08T07:57:20.953Z,0.84
2023-02-08T07:59:20.443Z,0.84
2023-02-08T08:01:42.513Z,0.84
2023-02-08T08:03:20.913Z,0.84
2023-02-08T08:05:20.567Z,0.84
2023-02-08T08:07:21.014Z,0.84
2023-02-08T08:09:20.423Z,0.84
2023-02-08T08:11:21.059Z,0.84
2023-02-08T08:13:20.571Z,0.84
2023-02-08T08:15:21.070Z,0.84
2023-02-08T08:17:21.037Z,0.84
2023-02-08T08:19:21.093Z,0.84
2023-02-08T08:21:20.564Z,0.84
2023-02-08T08:23:20.931Z,0.84
2023-02-08T08:25:20.309Z,0.84
2023-02-08T08:27:20.847Z,0.84
2023-02-08T08:29:21.195Z,0.84
2023-02-08T08:31:21.722Z,0.84
2023-02-08T08:33:20.286Z,0.84
2023-02-08T08:35:20.819Z,0.84
2023-02-08T08:37:20.549Z,0.84
2023-02-08T08:39:20.676Z,0.84
2023-02-08T08:41:21.614Z,0.84
2023-02-08T08:43:20.797Z,0.84
2023-02-08T08:45:20.254Z,0.84
2023-02-08T08:47:21.251Z,0.84
2023-02-08T08:49:20.423Z,0.84
2023-02-08T08:51:21.751Z,0.84
2023-02-08T08:53:20.416Z,0.84
2023-02-08T08:55:21.158Z,0.84
2023-02-08T08:57:20.421Z,0.84
2023-02-08T08:59:20.953Z,0.84
2023-02-08T09:01:24.138Z,0.84
2023-02-08T09:03:21.034Z,0.84
2023-02-08T09:05:21.179Z,0.84
2023-02-08T09:07:20.718Z,0.84
2023-02-08T09:09:20.100Z,0.84
2023-02-08T09:11:20.783Z,0.84
2023-02-08T09:13:20.785Z,0.84
2023-02-08T09:15:23.595Z,0.84
2023-02-08T09:17:20.580Z,0.84
2023-02-08T09:19:20.814Z,0.84
2023-02-08T09:21:23.534Z,0.84
2023-02-08T09:23:20.994Z,0.32
2023-02-08T09:25:20.194Z,0.32
2023-02-08T09:27:20.800Z,0.32
2023-02-08T09:29:20.729Z,0.7
2023-02-08T09:31:21.482Z,0.7
2023-02-08T09:33:20.589Z,0.7
2023-02-08T09:35:20.930Z,0.97
2023-02-08T09:37:20.502Z,0.97
2023-02-08T09:39:20.980Z,0.97
2023-02-08T09:41:20.422Z,1.19
2023-02-08T09:43:20.901Z,1.19
2023-02-08T09:45:20.388Z,1.19
2023-02-08T09:47:20.972Z,1.36
2023-02-08T09:49:20.201Z,1.36
2023-02-08T09:51:21.014Z,1.36
2023-02-08T09:53:20.352Z,1.48
2023-02-08T09:55:20.773Z,1.48
2023-02-08T09:57:21.190Z,1.48
2023-02-08T09:59:20.836Z,1.48
2023-02-08T10:01:20.803Z,1.48
2023-02-08T10:03:20.375Z,1.48
2023-02-08T10:05:20.741Z,1.48
2023-02-08T10:07:23.746Z,1.48
2023-02-08T10:09:31.349Z,1.48
2023-02-08T10:11:20.643Z,1.48
2023-02-08T10:13:23.994Z,1.48
2023-02-08T10:15:20.448Z,1.48
2023-02-08T10:17:20.978Z,1.48
2023-02-08T10:19:20.685Z,1.48
2023-02-08T10:21:21.013Z,1.48
2023-02-08T10:23:22.454Z,1.48
2023-02-08T10:25:20.698Z,1.48
2023-02-08T10:27:21.293Z,1.48
2023-02-08T10:29:20.869Z,1.48
2023-02-08T10:31:21.841Z,1.48
2023-02-08T10:33:20.479Z,1.48
2023-02-08T10:35:20.760Z,1.48
2023-02-08T10:37:21.217Z,1.48
2023-02-08T10:39:31.924Z,1.48
2023-02-08T10:41:21.297Z,1.48
2023-02-08T10:43:20.521Z,1.48
2023-02-08T10:45:35.433Z,1.48
2023-02-08T10:47:20.532Z,1.48
2023-02-08T10:49:21.277Z,1.48
2023-02-08T10:51:20.628Z,1.48
2023-02-08T10:53:21.389Z,1.48
2023-02-08T10:55:20.610Z,1.48
2023-02-08T10:57:21.137Z,1.48
2023-02-08T10:59:20.753Z,1.48
2023-02-08T11:01:24.758Z,0.52
2023-02-08T11:03:20.185Z,0.52
2023-02-08T11:05:20.914Z,0.52
2023-02-08T11:07:21.306Z,0.9
2023-02-08T11:09:20.691Z,0.9
2023-02-08T11:11:21.229Z,0.9
2023-02-08T11:13:20.560Z,1.17
2023-02-08T11:15:32.529Z,1.17
2023-02-08T11:17:20.886Z,1.17
2023-02-08T11:19:21.159Z,1.34
2023-02-08T11:21:20.550Z,1.34
2023-02-08T11:23:21.016Z,1.34
2023-02-08T11:25:20.339Z,1.45
2023-02-08T11:27:20.991Z,1.45
2023-02-08T11:29:20.596Z,1.45
2023-02-08T11:31:21.932Z,1.54
2023-02-08T11:33:20.625Z,1.54
2023-02-08T11:35:21.129Z,1.6
2023-02-08T11:37:20.336Z,1.6
2023-02-08T11:39:20.721Z,1.6
2023-02-08T11:41:20.560Z,1.6
2023-02-08T11:43:21.046Z,1.65
2023-02-08T11:45:20.488Z,1.65
2023-02-08T11:47:21.702Z,1.69
2023-02-08T11:49:20.927Z,1.7
2023-02-08T11:51:21.142Z,1.7
2023-02-08T11:53:20.378Z,1.7
2023-02-08T11:55:21.096Z,1.73
2023-02-08T11:57:20.425Z,1.73
2023-02-08T11:59:20.782Z,1.76
2023-02-08T12:01:24.533Z,1.76
2023-02-08T12:03:20.793Z,1.76
2023-02-08T12:05:21.112Z,1.76
2023-02-08T12:07:20.954Z,1.79
2023-02-08T12:09:20.954Z,1.79
2023-02-08T12:11:20.682Z,1.79
2023-02-08T12:13:21.150Z,1.82
2023-02-08T12:15:20.588Z,1.82
2023-02-08T12:17:21.599Z,1.82
2023-02-08T12:19:20.528Z,1.83
2023-02-08T12:21:21.274Z,1.83
2023-02-08T12:23:20.509Z,1.83
2023-02-08T12:25:21.052Z,1.86
2023-02-08T12:27:20.645Z,1.86
2023-02-08T12:29:21.006Z,1.86
2023-02-08T12:31:20.827Z,1.88
2023-02-08T12:33:20.833Z,1.88
2023-02-08T12:35:29.654Z,1.88
2023-02-08T12:37:24.363Z,1.89
2023-02-08T12:39:31.608Z,1.89
2023-02-08T12:41:20.851Z,1.89
2023-02-08T12:43:21.032Z,1.9
2023-02-08T12:45:20.407Z,1.9
2023-02-08T12:47:21.356Z,1.9
2023-02-08T12:49:23.641Z,1.92
2023-02-08T12:51:20.808Z,1.92
2023-02-08T12:53:20.298Z,1.92
2023-02-08T12:55:20.841Z,1.93
2023-02-08T12:57:35.221Z,1.93
2023-02-08T12:59:35.456Z,1.93
2023-02-08T13:01:23.766Z,1.95
2023-02-08T13:03:20.575Z,1.95
2023-02-08T13:05:20.803Z,1.95
2023-02-08T13:07:22.011Z,1.97
2023-02-08T13:09:20.541Z,1.97
2023-02-08T13:11:33.309Z,1.97
2023-02-08T13:13:20.493Z,1.98
2023-02-08T13:15:32.802Z,1.98
2023-02-08T13:17:20.630Z,1.98
2023-02-08T13:19:20.791Z,1.99
2023-02-08T13:21:20.290Z,1.99
2023-02-08T13:23:21.002Z,1.99
2023-02-08T13:25:31.396Z,2
2023-02-08T13:27:23.714Z,2
2023-02-08T13:29:24.861Z,2
2023-02-08T13:31:25.510Z,2.01
2023-02-08T13:33:20.754Z,2.01
2023-02-08T13:35:21.322Z,2.01
2023-02-08T13:37:36.289Z,2.02
2023-02-08T13:39:20.319Z,2.02
2023-02-08T13:41:20.979Z,2.02
2023-02-08T13:43:34.098Z,2.02
2023-02-08T13:45:21.082Z,2.02
2023-02-08T13:47:20.975Z,2.03
2023-02-08T13:49:21.046Z,2.03
2023-02-08T13:51:21.088Z,2.03
2023-02-08T13:53:33.734Z,2.04
2023-02-08T13:55:20.603Z,2.04
2023-02-08T13:57:20.148Z,2.04
2023-02-08T13:59:20.382Z,2.04
2023-02-08T14:01:24.039Z,2.05
2023-02-08T14:03:21.489Z,2.05
2023-02-08T14:05:20.661Z,2.05
2023-02-08T14:07:20.457Z,2.06
2023-02-08T14:09:21.102Z,2.06
2023-02-08T14:11:20.482Z,2.06
2023-02-08T14:13:20.752Z,2.07
2023-02-08T14:15:20.363Z,2.07
2023-02-08T14:17:21.187Z,2.07
2023-02-08T14:19:20.362Z,2.08
2023-02-08T14:21:20.631Z,2.08
2023-02-08T14:23:20.482Z,2.08
2023-02-08T14:25:20.728Z,2.08
2023-02-08T14:27:21.042Z,2.08
2023-02-08T14:29:21.672Z,2.08
2023-02-08T14:31:21.011Z,2.09
2023-02-08T14:33:20.788Z,2.09
2023-02-08T14:35:20.814Z,2.09
2023-02-08T14:37:20.196Z,2.09
2023-02-08T14:39:22.632Z,2.09
2023-02-08T14:41:21.530Z,2.09
2023-02-08T14:43:20.756Z,2.1
2023-02-08T14:45:20.415Z,2.1
2023-02-08T14:47:21.125Z,2.1
2023-02-08T14:49:20.276Z,2.11
2023-02-08T14:51:20.597Z,2.11
2023-02-08T14:53:20.646Z,2.11
2023-02-08T14:55:20.757Z,2.11
2023-02-08T14:57:20.203Z,2.11
2023-02-08T14:59:20.799Z,2.11
2023-02-08T15:01:24.175Z,2.12
2023-02-08T15:03:20.691Z,2.12
2023-02-08T15:05:21.891Z,2.12
2023-02-08T15:07:24.645Z,2.12
2023-02-08T15:09:21.018Z,2.12
2023-02-08T15:11:20.558Z,2.12
2023-02-08T15:13:20.965Z,2.12
2023-02-08T15:15:20.588Z,2.13
2023-02-08T15:17:21.356Z,2.13
2023-02-08T15:19:20.455Z,2.13
2023-02-08T15:21:21.013Z,2.13
2023-02-08T15:23:20.641Z,2.13
2023-02-08T15:25:24.366Z,2.14
2023-02-08T15:27:20.046Z,2.14
2023-02-08T15:29:24.618Z,2.14
2023-02-08T15:31:21.313Z,2.14
2023-02-08T15:33:20.449Z,2.14
2023-02-08T15:35:20.998Z,2.14
2023-02-08T15:37:20.453Z,2.16
2023-02-08T15:39:20.708Z,2.16
2023-02-08T15:41:20.159Z,2.16
2023-02-08T15:43:20.684Z,2.17
2023-02-08T15:45:22.234Z,2.17
2023-02-08T15:47:20.901Z,2.17
2023-02-08T15:49:20.080Z,2.17
2023-02-08T15:51:20.862Z,2.17
2023-02-08T15:53:20.370Z,2.17
2023-02-08T15:55:20.721Z,2.18
2023-02-08T15:57:33.334Z,2.18
2023-02-08T15:59:20.624Z,2.2
2023-02-08T16:01:24.446Z,2.2
2023-02-08T16:03:20.811Z,2.2
2023-02-08T16:05:20.925Z,2.21
2023-02-08T16:07:20.427Z,2.21
2023-02-08T16:09:23.042Z,2.21
2023-02-08T16:11:20.512Z,2.22
2023-02-08T16:13:20.838Z,2.22
2023-02-08T16:15:37.469Z,2.22
2023-02-08T16:17:28.232Z,2.24
2023-02-08T16:19:20.483Z,2.24
2023-02-08T16:21:25.228Z,2.24
2023-02-08T16:23:20.789Z,2.25
2023-02-08T16:25:21.125Z,2.25
2023-02-08T16:27:20.435Z,2.25
2023-02-08T16:29:21.428Z,2.26
2023-02-08T16:31:22.220Z,2.26
2023-02-08T16:33:21.629Z,2.26
2023-02-08T16:35:20.564Z,2.28
2023-02-08T16:37:20.290Z,2.28
2023-02-08T16:39:20.950Z,2.28
2023-02-08T16:41:20.397Z,2.28
2023-02-08T16:43:36.206Z,2.28
2023-02-08T16:45:20.838Z,2.28
2023-02-08T16:47:20.911Z,2.29
2023-02-08T16:49:37.292Z,2.29
2023-02-08T16:51:21.059Z,2.29
2023-02-08T16:53:21.735Z,2.29
2023-02-08T16:55:22.015Z,2.29
2023-02-08T16:57:20.570Z,2.29
2023-02-08T16:59:21.429Z,2.29
2023-02-08T17:01:24.366Z,2.3
2023-02-08T17:03:20.327Z,2.3
2023-02-08T17:05:23.542Z,2.3
2023-02-08T17:07:20.509Z,2.31
2023-02-08T17:09:20.959Z,2.31
2023-02-08T17:11:20.595Z,2.31
2023-02-08T17:13:58.385Z,2.31
2023-02-08T17:15:20.709Z,2.31
2023-02-08T17:17:21.292Z,2.31
2023-02-08T17:19:20.552Z,2.32
2023-02-08T17:21:21.212Z,2.32
2023-02-08T17:23:20.412Z,2.32
2023-02-08T17:25:23.929Z,2.32
2023-02-08T17:27:20.179Z,2.32
2023-02-08T17:29:20.975Z,2.32
2023-02-08T17:31:21.469Z,2.33
2023-02-08T17:33:20.844Z,2.33
2023-02-08T17:35:20.237Z,2.33
2023-02-08T17:37:20.760Z,2.33
2023-02-08T17:39:20.193Z,2.33
2023-02-08T17:41:20.659Z,2.33
2023-02-08T17:43:21.639Z,2.35
2023-02-08T17:45:21.288Z,2.35
2023-02-08T17:47:20.756Z,2.35
2023-02-08T17:49:22.359Z,2.35
2023-02-08T17:51:20.776Z,2.35
2023-02-08T17:53:21.393Z,2.35
2023-02-08T17:55:22.802Z,2.35
2023-02-08T17:57:21.009Z,2.36
2023-02-08T17:59:25.318Z,2.36
2023-02-08T18:01:23.738Z,2.36
2023-02-08T18:03:23.978Z,2.37
2023-02-08T18:05:21.091Z,2.37
2023-02-08T18:07:20.609Z,2.37
2023-02-08T18:09:22.777Z,2.38
2023-02-08T18:11:20.572Z,2.38
2023-02-08T18:13:20.477Z,2.38
2023-02-08T18:15:22.374Z,2.37
2023-02-08T18:17:20.735Z,2.37
2023-02-08T18:19:20.972Z,2.37
2023-02-08T18:21:20.596Z,2.38
2023-02-08T18:23:21.639Z,2.38
2023-02-08T18:25:20.077Z,2.38
2023-02-08T18:27:22.380Z,2.37
2023-02-08T18:29:20.614Z,2.37
2023-02-08T18:31:21.332Z,2.37
2023-02-08T18:33:20.660Z,2.38
2023-02-08T18:35:21.281Z,2.38
2023-02-08T18:37:20.352Z,2.38
2023-02-08T18:39:20.629Z,2.38
2023-02-08T18:41:20.412Z,2.38
2023-02-08T18:43:21.550Z,2.38
2023-02-08T18:45:20.582Z,2.39
2023-02-08T18:47:21.069Z,2.39
2023-02-08T18:49:20.306Z,2.39
2023-02-08T18:51:20.882Z,2.39
2023-02-08T18:53:20.276Z,2.39
2023-02-08T18:55:20.627Z,2.39
2023-02-08T18:57:21.090Z,2.39
2023-02-08T18:59:20.601Z,2.39
2023-02-08T19:01:27.121Z,2.39
2023-02-08T19:03:24.465Z,2.39
2023-02-08T19:05:20.918Z,2.39
2023-02-08T19:07:20.287Z,2.39
2023-02-08T19:09:20.819Z,2.39
2023-02-08T19:11:20.235Z,2.39
2023-02-08T19:13:20.748Z,2.39
2023-02-08T19:15:21.087Z,2.39
2023-02-08T19:17:20.664Z,2.39
2023-02-08T19:19:20.795Z,2.39
2023-02-08T19:21:20.513Z,2.39
2023-02-08T19:23:21.186Z,2.39
2023-02-08T19:25:22.965Z,2.41
2023-02-08T19:27:21.138Z,2.41
2023-02-08T19:29:20.782Z,2.42
2023-02-08T19:31:21.663Z,2.42
2023-02-08T19:33:20.762Z,2.42
2023-02-08T19:35:21.065Z,2.42
2023-02-08T19:37:20.717Z,2.43
2023-02-08T19:39:21.100Z,2.43
2023-02-08T19:41:20.724Z,2.42
2023-02-08T19:43:20.997Z,2.42
2023-02-08T19:45:20.460Z,2.42
2023-02-08T19:47:20.927Z,2.42
2023-02-08T19:49:20.214Z,2.43
2023-02-08T19:51:20.983Z,2.43
2023-02-08T19:53:20.421Z,2.43
2023-02-08T19:55:20.882Z,2.42
2023-02-08T19:57:20.437Z,2.42
2023-02-08T19:59:21.068Z,2.44
2023-02-08T20:01:37.065Z,2.43
2023-02-08T20:03:32.937Z,2.43
2023-02-08T20:05:20.809Z,2.43
2023-02-08T20:07:20.517Z,2.43
2023-02-08T20:09:23.423Z,2.43
2023-02-08T20:11:20.642Z,2.43
2023-02-08T20:13:21.216Z,2.44
2023-02-08T20:15:20.660Z,2.44
2023-02-08T20:17:20.343Z,2.44
2023-02-08T20:19:20.774Z,2.44
2023-02-08T20:21:20.361Z,2.44
2023-02-08T20:23:33.916Z,2.44
2023-02-08T20:25:20.396Z,2.44
2023-02-08T20:27:20.985Z,2.44
2023-02-08T20:29:20.749Z,2.44
2023-02-08T20:31:21.779Z,2.46
2023-02-08T20:33:20.709Z,2.46
2023-02-08T20:35:32.526Z,2.46
2023-02-08T20:37:39.938Z,2.44
2023-02-08T20:39:20.533Z,2.44
2023-02-08T20:41:21.023Z,2.44
2023-02-08T20:43:20.644Z,2.46
2023-02-08T20:45:20.997Z,2.46
2023-02-08T20:47:20.722Z,2.46
2023-02-08T20:49:21.081Z,2.44
2023-02-08T20:51:34.560Z,2.44
2023-02-08T20:53:21.024Z,2.44
2023-02-08T20:55:20.477Z,2.46
2023-02-08T20:57:21.178Z,2.46
2023-02-08T20:59:20.588Z,2.46
2023-02-08T21:01:38.885Z,2.47
2023-02-08T21:03:20.548Z,2.47
2023-02-08T21:05:20.906Z,2.47
2023-02-08T21:07:20.427Z,2.47
2023-02-08T21:09:20.677Z,2.47
2023-02-08T21:11:20.728Z,2.47
2023-02-08T21:13:21.131Z,2.47
2023-02-08T21:15:20.850Z,2.47
2023-02-08T21:17:20.373Z,2.47
2023-02-08T21:19:21.010Z,2.47
2023-02-08T21:21:21.453Z,2.47
2023-02-08T21:23:20.565Z,2.47
2023-02-08T21:25:20.196Z,2.48
2023-02-08T21:27:20.616Z,2.48
2023-02-08T21:29:21.525Z,2.48
2023-02-08T21:31:22.171Z,2.48
2023-02-08T21:33:20.523Z,2.48
2023-02-08T21:35:20.710Z,2.48
2023-02-08T21:37:21.254Z,2.48
2023-02-08T21:39:20.546Z,2.48
2023-02-08T21:41:21.217Z,2.48
2023-02-08T21:43:20.590Z,2.48
2023-02-08T21:45:21.278Z,2.48
2023-02-08T21:47:20.745Z,2.48
2023-02-08T21:49:21.037Z,2.48
2023-02-08T21:51:21.074Z,2.48
2023-02-08T21:53:21.038Z,2.48
2023-02-08T21:55:20.456Z,2.48
2023-02-08T21:57:21.358Z,2.48
2023-02-08T21:59:20.609Z,2.48
2023-02-08T22:01:23.600Z,2.48
2023-02-08T22:03:20.739Z,2.48
2023-02-08T22:05:22.259Z,2.48
2023-02-08T22:07:20.467Z,2.5
2023-02-08T22:09:20.645Z,2.5
2023-02-08T22:11:31.780Z,2.5
2023-02-08T22:13:20.946Z,2.5
2023-02-08T22:15:20.362Z,2.5
2023-02-08T22:17:21.100Z,2.5
2023-02-08T22:19:20.400Z,2.5
2023-02-08T22:21:21.225Z,2.5
2023-02-08T22:23:20.099Z,2.5
2023-02-08T22:25:20.714Z,2.5
2023-02-08T22:27:20.290Z,2.5
2023-02-08T22:29:22.501Z,2.5
2023-02-08T22:31:23.090Z,2.5
2023-02-08T22:33:21.384Z,2.5
2023-02-08T22:35:20.742Z,2.5
2023-02-08T22:37:20.286Z,2.5
2023-02-08T22:39:20.887Z,2.5
2023-02-08T22:41:21.256Z,2.5
2023-02-08T22:43:21.019Z,2.5
2023-02-08T22:45:20.401Z,2.5
2023-02-08T22:47:21.238Z,2.5
2023-02-08T22:49:20.248Z,2.5
2023-02-08T22:51:21.171Z,2.5
2023-02-08T22:53:20.329Z,2.5
2023-02-08T22:55:20.833Z,2.51
2023-02-08T22:57:21.133Z,2.51
2023-02-08T22:59:20.595Z,2.51
2023-02-08T23:01:30.217Z,2.51
2023-02-08T23:03:20.926Z,2.51
2023-02-08T23:05:20.813Z,2.51
2023-02-08T23:07:20.507Z,2.52
2023-02-08T23:09:20.963Z,2.52
2023-02-08T23:11:20.811Z,2.52
2023-02-08T23:13:21.030Z,2.51
2023-02-08T23:15:20.699Z,2.51
2023-02-08T23:17:21.590Z,2.51
2023-02-08T23:19:20.611Z,2.52
2023-02-08T23:21:20.894Z,2.52
2023-02-08T23:23:20.769Z,2.52
2023-02-08T23:25:20.095Z,2.52
2023-02-08T23:27:20.622Z,2.52
2023-02-08T23:29:21.419Z,2.52
2023-02-08T23:31:21.547Z,2.52
2023-02-08T23:33:21.153Z,2.52
2023-02-08T23:35:20.722Z,2.52
2023-02-08T23:37:21.135Z,2.54
2023-02-08T23:39:20.355Z,2.54
2023-02-08T23:41:21.197Z,2.54
2023-02-08T23:43:22.556Z,2.52
2023-02-08T23:45:21.029Z,2.52
2023-02-08T23:47:20.869Z,2.52
2023-02-08T23:49:24.257Z,2.54
2023-02-08T23:51:21.345Z,2.54
2023-02-08T23:53:21.060Z,2.54
2023-02-08T23:55:20.378Z,2.54
2023-02-08T23:57:20.934Z,2.54
2023-02-08T23:59:20.486Z,2.54
